sensor_id;sensor_type;location;lat;lon;timestamp;P1;durP1;ratioP1;P2;durP2;ratioP2
14754;SDS011;7469;50.906;6.952;2024-03-25T00:00:33;12.63;;;3.37;;
14754;SDS011;7469;50.906;6.952;2024-03-25T00:03:02;14.60;;;3.63;;
14754;SDS011;7469;50.906;6.952;2024-03-25T00:05:28;14.53;;;4.20;;
14754;SDS011;7469;50.906;6.952;2024-03-25T00:07:57;10.47;;;3.07;;
14754;SDS011;7469;50.906;6.952;2024-03-25T00:10:24;10.50;;;3.53;;
14754;SDS011;7469;50.906;6.952;2024-03-25T00:12:51;19.60;;;3.83;;
14754;SDS011;7469;50.906;6.952;2024-03-25T00:15:19;12.23;;;3.27;;
14754;SDS011;7469;50.906;6.952;2024-03-25T00:17:49;10.20;;;3.57;;
14754;SDS011;7469;50.906;6.952;2024-03-25T00:20:18;13.23;;;3.47;;
14754;SDS011;7469;50.906;6.952;2024-03-25T00:22:44;17.03;;;3.77;;
14754;SDS011;7469;50.906;6.952;2024-03-25T00:25:11;13.47;;;3.70;;
14754;SDS011;7469;50.906;6.952;2024-03-25T00:27:37;12.07;;;3.13;;
14754;SDS011;7469;50.906;6.952;2024-03-25T00:30:05;12.23;;;3.83;;
14754;SDS011;7469;50.906;6.952;2024-03-25T00:32:32;11.70;;;3.63;;
14754;SDS011;7469;50.906;6.952;2024-03-25T00:34:59;11.87;;;3.40;;
14754;SDS011;7469;50.906;6.952;2024-03-25T00:37:26;12.40;;;3.73;;
14754;SDS011;7469;50.906;6.952;2024-03-25T00:39:53;19.47;;;4.07;;
14754;SDS011;7469;50.906;6.952;2024-03-25T00:42:19;12.73;;;3.80;;
14754;SDS011;7469;50.906;6.952;2024-03-25T00:44:46;19.07;;;4.70;;
14754;SDS011;7469;50.906;6.952;2024-03-25T00:47:12;17.00;;;4.97;;
14754;SDS011;7469;50.906;6.952;2024-03-25T00:49:39;12.57;;;4.10;;
14754;SDS011;7469;50.906;6.952;2024-03-25T00:52:05;17.73;;;4.57;;
14754;SDS011;7469;50.906;6.952;2024-03-25T00:54:34;24.17;;;4.10;;
14754;SDS011;7469;50.906;6.952;2024-03-25T00:57:00;17.23;;;4.13;;
14754;SDS011;7469;50.906;6.952;2024-03-25T00:59:28;14.10;;;4.17;;
14754;SDS011;7469;50.906;6.952;2024-03-25T01:01:53;18.73;;;4.50;;
14754;SDS011;7469;50.906;6.952;2024-03-25T01:04:21;14.43;;;4.23;;
14754;SDS011;7469;50.906;6.952;2024-03-25T01:06:48;14.00;;;4.50;;
14754;SDS011;7469;50.906;6.952;2024-03-25T01:09:15;17.27;;;4.00;;
14754;SDS011;7469;50.906;6.952;2024-03-25T01:11:43;20.77;;;5.20;;
14754;SDS011;7469;50.906;6.952;2024-03-25T01:14:09;15.90;;;4.33;;
14754;SDS011;7469;50.906;6.952;2024-03-25T01:16:35;15.07;;;4.50;;
14754;SDS011;7469;50.906;6.952;2024-03-25T01:19:02;27.63;;;4.70;;
14754;SDS011;7469;50.906;6.952;2024-03-25T01:21:29;18.30;;;3.90;;
14754;SDS011;7469;50.906;6.952;2024-03-25T01:23:56;15.47;;;3.73;;
14754;SDS011;7469;50.906;6.952;2024-03-25T01:26:22;18.57;;;4.23;;
14754;SDS011;7469;50.906;6.952;2024-03-25T01:28:50;18.77;;;4.47;;
14754;SDS011;7469;50.906;6.952;2024-03-25T01:31:17;15.43;;;4.40;;
14754;SDS011;7469;50.906;6.952;2024-03-25T01:33:44;18.20;;;4.43;;
14754;SDS011;7469;50.906;6.952;2024-03-25T01:36:11;22.50;;;5.07;;
14754;SDS011;7469;50.906;6.952;2024-03-25T01:38:41;18.43;;;4.10;;
14754;SDS011;7469;50.906;6.952;2024-03-25T01:41:09;15.90;;;4.40;;
14754;SDS011;7469;50.906;6.952;2024-03-25T01:43:35;12.30;;;3.90;;
14754;SDS011;7469;50.906;6.952;2024-03-25T01:46:03;18.00;;;4.37;;
14754;SDS011;7469;50.906;6.952;2024-03-25T01:48:30;15.57;;;4.80;;
14754;SDS011;7469;50.906;6.952;2024-03-25T01:50:57;19.20;;;4.20;;
14754;SDS011;7469;50.906;6.952;2024-03-25T01:53:26;15.30;;;4.50;;
14754;SDS011;7469;50.906;6.952;2024-03-25T01:55:55;12.43;;;3.50;;
14754;SDS011;7469;50.906;6.952;2024-03-25T01:58:22;19.17;;;4.70;;
14754;SDS011;7469;50.906;6.952;2024-03-25T02:00:51;15.13;;;4.60;;
14754;SDS011;7469;50.906;6.952;2024-03-25T02:03:20;21.80;;;4.40;;
14754;SDS011;7469;50.906;6.952;2024-03-25T02:05:49;20.70;;;4.20;;
14754;SDS011;7469;50.906;6.952;2024-03-25T02:08:18;17.37;;;4.30;;
14754;SDS011;7469;50.906;6.952;2024-03-25T02:10:46;12.50;;;3.63;;
14754;SDS011;7469;50.906;6.952;2024-03-25T02:13:12;16.33;;;4.20;;
14754;SDS011;7469;50.906;6.952;2024-03-25T02:15:40;16.23;;;4.43;;
14754;SDS011;7469;50.906;6.952;2024-03-25T02:18:07;17.07;;;3.43;;
14754;SDS011;7469;50.906;6.952;2024-03-25T02:20:35;16.93;;;4.03;;
14754;SDS011;7469;50.906;6.952;2024-03-25T02:23:01;17.83;;;3.67;;
14754;SDS011;7469;50.906;6.952;2024-03-25T02:25:28;15.87;;;3.77;;
14754;SDS011;7469;50.906;6.952;2024-03-25T02:27:59;20.83;;;4.27;;
14754;SDS011;7469;50.906;6.952;2024-03-25T02:30:26;24.27;;;4.07;;
14754;SDS011;7469;50.906;6.952;2024-03-25T02:32:52;23.80;;;4.33;;
14754;SDS011;7469;50.906;6.952;2024-03-25T02:35:19;16.93;;;4.33;;
14754;SDS011;7469;50.906;6.952;2024-03-25T02:37:47;20.43;;;4.33;;
14754;SDS011;7469;50.906;6.952;2024-03-25T02:40:16;13.20;;;3.13;;
14754;SDS011;7469;50.906;6.952;2024-03-25T02:42:46;18.13;;;3.80;;
14754;SDS011;7469;50.906;6.952;2024-03-25T02:45:14;21.70;;;4.50;;
14754;SDS011;7469;50.906;6.952;2024-03-25T02:47:41;13.30;;;3.90;;
14754;SDS011;7469;50.906;6.952;2024-03-25T02:50:08;18.57;;;4.27;;
14754;SDS011;7469;50.906;6.952;2024-03-25T02:52:34;19.43;;;4.37;;
14754;SDS011;7469;50.906;6.952;2024-03-25T02:55:01;24.37;;;4.50;;
14754;SDS011;7469;50.906;6.952;2024-03-25T02:57:27;17.67;;;4.13;;
14754;SDS011;7469;50.906;6.952;2024-03-25T02:59:54;19.17;;;4.27;;
14754;SDS011;7469;50.906;6.952;2024-03-25T03:02:22;19.30;;;3.53;;
14754;SDS011;7469;50.906;6.952;2024-03-25T03:04:49;16.70;;;3.67;;
14754;SDS011;7469;50.906;6.952;2024-03-25T03:07:15;20.03;;;4.47;;
14754;SDS011;7469;50.906;6.952;2024-03-25T03:09:42;17.67;;;3.93;;
14754;SDS011;7469;50.906;6.952;2024-03-25T03:12:08;17.70;;;3.67;;
14754;SDS011;7469;50.906;6.952;2024-03-25T03:14:35;17.97;;;4.40;;
14754;SDS011;7469;50.906;6.952;2024-03-25T03:17:01;13.20;;;3.80;;
14754;SDS011;7469;50.906;6.952;2024-03-25T03:19:31;18.70;;;4.00;;
14754;SDS011;7469;50.906;6.952;2024-03-25T03:21:58;17.10;;;4.20;;
14754;SDS011;7469;50.906;6.952;2024-03-25T03:24:25;15.83;;;3.20;;
14754;SDS011;7469;50.906;6.952;2024-03-25T03:26:51;15.27;;;3.63;;
14754;SDS011;7469;50.906;6.952;2024-03-25T03:29:18;18.30;;;3.83;;
14754;SDS011;7469;50.906;6.952;2024-03-25T03:31:44;17.40;;;3.87;;
14754;SDS011;7469;50.906;6.952;2024-03-25T03:34:11;16.27;;;4.13;;
14754;SDS011;7469;50.906;6.952;2024-03-25T03:36:38;17.30;;;4.10;;
14754;SDS011;7469;50.906;6.952;2024-03-25T03:39:05;26.87;;;4.63;;
14754;SDS011;7469;50.906;6.952;2024-03-25T03:41:34;17.60;;;4.47;;
14754;SDS011;7469;50.906;6.952;2024-03-25T03:44:01;18.23;;;4.27;;
14754;SDS011;7469;50.906;6.952;2024-03-25T03:46:27;15.97;;;4.03;;
14754;SDS011;7469;50.906;6.952;2024-03-25T03:48:54;25.67;;;4.67;;
14754;SDS011;7469;50.906;6.952;2024-03-25T03:51:21;15.57;;;3.87;;
14754;SDS011;7469;50.906;6.952;2024-03-25T03:53:49;15.53;;;4.37;;
14754;SDS011;7469;50.906;6.952;2024-03-25T03:56:15;21.13;;;4.20;;
14754;SDS011;7469;50.906;6.952;2024-03-25T03:58:42;20.20;;;4.70;;
14754;SDS011;7469;50.906;6.952;2024-03-25T04:01:13;17.87;;;3.83;;
14754;SDS011;7469;50.906;6.952;2024-03-25T04:03:41;22.47;;;5.07;;
14754;SDS011;7469;50.906;6.952;2024-03-25T04:06:07;16.20;;;3.63;;
14754;SDS011;7469;50.906;6.952;2024-03-25T04:08:37;15.10;;;3.93;;
14754;SDS011;7469;50.906;6.952;2024-03-25T04:11:05;14.27;;;4.03;;
14754;SDS011;7469;50.906;6.952;2024-03-25T04:13:33;14.83;;;4.10;;
14754;SDS011;7469;50.906;6.952;2024-03-25T04:16:03;26.93;;;4.20;;
14754;SDS011;7469;50.906;6.952;2024-03-25T04:18:31;15.40;;;3.87;;
14754;SDS011;7469;50.906;6.952;2024-03-25T04:20:58;21.93;;;4.17;;
14754;SDS011;7469;50.906;6.952;2024-03-25T04:23:26;21.27;;;4.30;;
14754;SDS011;7469;50.906;6.952;2024-03-25T04:25:52;17.87;;;4.37;;
14754;SDS011;7469;50.906;6.952;2024-03-25T04:28:21;19.33;;;4.37;;
14754;SDS011;7469;50.906;6.952;2024-03-25T04:30:51;18.63;;;3.73;;
14754;SDS011;7469;50.906;6.952;2024-03-25T04:33:19;17.20;;;4.17;;
14754;SDS011;7469;50.906;6.952;2024-03-25T04:35:45;16.07;;;4.07;;
14754;SDS011;7469;50.906;6.952;2024-03-25T04:38:13;16.37;;;3.93;;
14754;SDS011;7469;50.906;6.952;2024-03-25T04:40:41;17.07;;;4.53;;
14754;SDS011;7469;50.906;6.952;2024-03-25T04:43:07;15.87;;;3.87;;
14754;SDS011;7469;50.906;6.952;2024-03-25T04:45:34;18.40;;;4.17;;
14754;SDS011;7469;50.906;6.952;2024-03-25T04:48:00;14.43;;;4.27;;
14754;SDS011;7469;50.906;6.952;2024-03-25T04:50:26;17.87;;;4.50;;
14754;SDS011;7469;50.906;6.952;2024-03-25T04:52:53;15.17;;;4.37;;
14754;SDS011;7469;50.906;6.952;2024-03-25T04:55:19;14.17;;;3.73;;
14754;SDS011;7469;50.906;6.952;2024-03-25T04:57:45;16.93;;;4.67;;
14754;SDS011;7469;50.906;6.952;2024-03-25T05:00:11;16.17;;;4.17;;
14754;SDS011;7469;50.906;6.952;2024-03-25T05:02:39;12.57;;;4.10;;
14754;SDS011;7469;50.906;6.952;2024-03-25T05:05:06;18.37;;;4.30;;
14754;SDS011;7469;50.906;6.952;2024-03-25T05:07:32;21.33;;;4.63;;
14754;SDS011;7469;50.906;6.952;2024-03-25T05:09:58;11.20;;;3.70;;
14754;SDS011;7469;50.906;6.952;2024-03-25T05:12:24;15.37;;;4.27;;
14754;SDS011;7469;50.906;6.952;2024-03-25T05:14:51;18.03;;;4.20;;
14754;SDS011;7469;50.906;6.952;2024-03-25T05:17:17;14.63;;;4.63;;
14754;SDS011;7469;50.906;6.952;2024-03-25T05:19:44;17.60;;;4.77;;
14754;SDS011;7469;50.906;6.952;2024-03-25T05:22:10;18.30;;;4.10;;
14754;SDS011;7469;50.906;6.952;2024-03-25T05:24:36;12.50;;;3.97;;
14754;SDS011;7469;50.906;6.952;2024-03-25T05:27:02;15.57;;;4.67;;
14754;SDS011;7469;50.906;6.952;2024-03-25T05:29:29;16.10;;;4.63;;
14754;SDS011;7469;50.906;6.952;2024-03-25T05:31:55;21.13;;;4.70;;
14754;SDS011;7469;50.906;6.952;2024-03-25T05:34:23;18.17;;;5.10;;
14754;SDS011;7469;50.906;6.952;2024-03-25T05:36:50;18.57;;;4.87;;
14754;SDS011;7469;50.906;6.952;2024-03-25T05:39:17;15.93;;;5.13;;
14754;SDS011;7469;50.906;6.952;2024-03-25T05:41:43;13.30;;;4.57;;
14754;SDS011;7469;50.906;6.952;2024-03-25T05:44:09;17.43;;;4.53;;
14754;SDS011;7469;50.906;6.952;2024-03-25T05:46:35;16.73;;;4.47;;
14754;SDS011;7469;50.906;6.952;2024-03-25T05:49:02;13.10;;;4.17;;
14754;SDS011;7469;50.906;6.952;2024-03-25T05:51:28;16.67;;;5.00;;
14754;SDS011;7469;50.906;6.952;2024-03-25T05:53:56;11.43;;;4.27;;
14754;SDS011;7469;50.906;6.952;2024-03-25T05:56:22;12.90;;;4.33;;
14754;SDS011;7469;50.906;6.952;2024-03-25T05:58:48;14.67;;;4.83;;
14754;SDS011;7469;50.906;6.952;2024-03-25T06:01:14;15.90;;;4.83;;
14754;SDS011;7469;50.906;6.952;2024-03-25T06:03:40;12.93;;;4.70;;
14754;SDS011;7469;50.906;6.952;2024-03-25T06:06:07;16.37;;;5.10;;
14754;SDS011;7469;50.906;6.952;2024-03-25T06:08:33;14.60;;;4.97;;
14754;SDS011;7469;50.906;6.952;2024-03-25T06:11:03;19.73;;;6.00;;
14754;SDS011;7469;50.906;6.952;2024-03-25T06:13:29;18.97;;;5.83;;
14754;SDS011;7469;50.906;6.952;2024-03-25T06:15:55;13.67;;;5.03;;
14754;SDS011;7469;50.906;6.952;2024-03-25T06:18:21;20.87;;;6.00;;
14754;SDS011;7469;50.906;6.952;2024-03-25T06:20:48;15.83;;;5.70;;
14754;SDS011;7469;50.906;6.952;2024-03-25T06:23:21;16.97;;;5.87;;
14754;SDS011;7469;50.906;6.952;2024-03-25T06:25:49;20.27;;;6.90;;
14754;SDS011;7469;50.906;6.952;2024-03-25T06:28:18;17.10;;;7.17;;
14754;SDS011;7469;50.906;6.952;2024-03-25T06:30:44;18.50;;;6.47;;
14754;SDS011;7469;50.906;6.952;2024-03-25T06:33:29;19.63;;;6.10;;
14754;SDS011;7469;50.906;6.952;2024-03-25T06:36:13;18.10;;;5.20;;
14754;SDS011;7469;50.906;6.952;2024-03-25T06:38:40;14.33;;;5.53;;
14754;SDS011;7469;50.906;6.952;2024-03-25T06:41:06;20.60;;;4.63;;
14754;SDS011;7469;50.906;6.952;2024-03-25T06:43:33;14.00;;;4.30;;
14754;SDS011;7469;50.906;6.952;2024-03-25T06:45:59;11.67;;;4.57;;
14754;SDS011;7469;50.906;6.952;2024-03-25T06:48:25;12.37;;;4.07;;
14754;SDS011;7469;50.906;6.952;2024-03-25T06:50:52;11.50;;;4.27;;
14754;SDS011;7469;50.906;6.952;2024-03-25T06:53:19;19.37;;;4.10;;
14754;SDS011;7469;50.906;6.952;2024-03-25T06:55:52;14.50;;;3.83;;
14754;SDS011;7469;50.906;6.952;2024-03-25T06:58:19;11.83;;;3.63;;
14754;SDS011;7469;50.906;6.952;2024-03-25T07:00:47;19.07;;;3.63;;
14754;SDS011;7469;50.906;6.952;2024-03-25T07:03:13;16.70;;;4.53;;
14754;SDS011;7469;50.906;6.952;2024-03-25T07:05:40;17.00;;;3.80;;
14754;SDS011;7469;50.906;6.952;2024-03-25T07:08:06;13.43;;;3.43;;
14754;SDS011;7469;50.906;6.952;2024-03-25T07:10:32;13.87;;;3.90;;
14754;SDS011;7469;50.906;6.952;2024-03-25T07:12:59;12.80;;;3.60;;
14754;SDS011;7469;50.906;6.952;2024-03-25T07:15:25;14.50;;;4.10;;
14754;SDS011;7469;50.906;6.952;2024-03-25T07:17:52;12.30;;;3.67;;
14754;SDS011;7469;50.906;6.952;2024-03-25T07:20:18;13.27;;;3.80;;
14754;SDS011;7469;50.906;6.952;2024-03-25T07:22:44;14.03;;;3.33;;
14754;SDS011;7469;50.906;6.952;2024-03-25T07:25:11;12.23;;;3.63;;
14754;SDS011;7469;50.906;6.952;2024-03-25T07:27:37;9.63;;;2.97;;
14754;SDS011;7469;50.906;6.952;2024-03-25T07:30:03;10.57;;;2.93;;
14754;SDS011;7469;50.906;6.952;2024-03-25T07:32:30;15.87;;;4.30;;
14754;SDS011;7469;50.906;6.952;2024-03-25T07:34:57;12.83;;;3.40;;
14754;SDS011;7469;50.906;6.952;2024-03-25T07:37:23;16.43;;;3.70;;
14754;SDS011;7469;50.906;6.952;2024-03-25T07:39:50;14.40;;;3.80;;
14754;SDS011;7469;50.906;6.952;2024-03-25T07:42:16;11.13;;;3.17;;
14754;SDS011;7469;50.906;6.952;2024-03-25T07:44:42;17.20;;;3.50;;
14754;SDS011;7469;50.906;6.952;2024-03-25T07:47:08;14.23;;;3.53;;
14754;SDS011;7469;50.906;6.952;2024-03-25T07:49:34;13.87;;;3.90;;
14754;SDS011;7469;50.906;6.952;2024-03-25T07:52:01;13.67;;;3.47;;
14754;SDS011;7469;50.906;6.952;2024-03-25T07:54:28;11.23;;;3.13;;
14754;SDS011;7469;50.906;6.952;2024-03-25T07:56:54;11.73;;;3.40;;
14754;SDS011;7469;50.906;6.952;2024-03-25T07:59:20;14.53;;;3.50;;
14754;SDS011;7469;50.906;6.952;2024-03-25T08:01:46;20.10;;;4.73;;
14754;SDS011;7469;50.906;6.952;2024-03-25T08:04:12;15.03;;;4.30;;
14754;SDS011;7469;50.906;6.952;2024-03-25T08:06:38;13.93;;;4.27;;
14754;SDS011;7469;50.906;6.952;2024-03-25T08:09:06;13.87;;;4.53;;
14754;SDS011;7469;50.906;6.952;2024-03-25T08:11:32;20.43;;;4.57;;
14754;SDS011;7469;50.906;6.952;2024-03-25T08:13:58;14.03;;;3.83;;
14754;SDS011;7469;50.906;6.952;2024-03-25T08:16:24;12.23;;;4.07;;
14754;SDS011;7469;50.906;6.952;2024-03-25T08:18:50;15.07;;;4.00;;
14754;SDS011;7469;50.906;6.952;2024-03-25T08:21:16;16.10;;;4.73;;
14754;SDS011;7469;50.906;6.952;2024-03-25T08:23:44;13.53;;;4.90;;
14754;SDS011;7469;50.906;6.952;2024-03-25T08:26:12;16.77;;;4.70;;
14754;SDS011;7469;50.906;6.952;2024-03-25T08:28:38;13.10;;;3.70;;
14754;SDS011;7469;50.906;6.952;2024-03-25T08:31:04;14.73;;;3.87;;
14754;SDS011;7469;50.906;6.952;2024-03-25T08:33:30;15.53;;;3.20;;
14754;SDS011;7469;50.906;6.952;2024-03-25T08:35:57;13.47;;;4.10;;
14754;SDS011;7469;50.906;6.952;2024-03-25T08:38:23;15.23;;;4.00;;
14754;SDS011;7469;50.906;6.952;2024-03-25T08:40:50;12.77;;;3.67;;
14754;SDS011;7469;50.906;6.952;2024-03-25T08:43:18;17.53;;;4.53;;
14754;SDS011;7469;50.906;6.952;2024-03-25T08:45:44;17.80;;;3.57;;
14754;SDS011;7469;50.906;6.952;2024-03-25T08:48:11;11.63;;;2.60;;
14754;SDS011;7469;50.906;6.952;2024-03-25T08:50:37;15.20;;;3.37;;
14754;SDS011;7469;50.906;6.952;2024-03-25T08:53:04;17.17;;;3.77;;
14754;SDS011;7469;50.906;6.952;2024-03-25T08:55:31;11.70;;;3.03;;
14754;SDS011;7469;50.906;6.952;2024-03-25T08:57:57;13.97;;;3.63;;
14754;SDS011;7469;50.906;6.952;2024-03-25T09:00:25;13.57;;;3.10;;
14754;SDS011;7469;50.906;6.952;2024-03-25T09:02:51;18.13;;;3.80;;
14754;SDS011;7469;50.906;6.952;2024-03-25T09:05:17;12.47;;;3.30;;
14754;SDS011;7469;50.906;6.952;2024-03-25T09:07:43;14.07;;;3.43;;
14754;SDS011;7469;50.906;6.952;2024-03-25T09:10:10;11.50;;;3.17;;
14754;SDS011;7469;50.906;6.952;2024-03-25T09:13:00;11.47;;;2.97;;
14754;SDS011;7469;50.906;6.952;2024-03-25T09:15:27;17.67;;;3.03;;
14754;SDS011;7469;50.906;6.952;2024-03-25T09:17:54;14.60;;;3.20;;
14754;SDS011;7469;50.906;6.952;2024-03-25T09:20:20;10.13;;;3.17;;
14754;SDS011;7469;50.906;6.952;2024-03-25T09:22:46;14.70;;;3.33;;
14754;SDS011;7469;50.906;6.952;2024-03-25T09:25:12;14.73;;;3.23;;
14754;SDS011;7469;50.906;6.952;2024-03-25T09:27:38;8.53;;;2.73;;
14754;SDS011;7469;50.906;6.952;2024-03-25T09:30:05;18.50;;;3.10;;
14754;SDS011;7469;50.906;6.952;2024-03-25T09:32:34;11.27;;;2.37;;
14754;SDS011;7469;50.906;6.952;2024-03-25T09:35:00;12.67;;;3.10;;
14754;SDS011;7469;50.906;6.952;2024-03-25T09:37:26;10.50;;;3.13;;
14754;SDS011;7469;50.906;6.952;2024-03-25T09:39:52;8.43;;;2.80;;
14754;SDS011;7469;50.906;6.952;2024-03-25T09:42:25;9.10;;;2.97;;
14754;SDS011;7469;50.906;6.952;2024-03-25T09:44:53;9.77;;;3.13;;
14754;SDS011;7469;50.906;6.952;2024-03-25T09:47:20;11.63;;;2.73;;
14754;SDS011;7469;50.906;6.952;2024-03-25T09:49:48;8.37;;;2.50;;
14754;SDS011;7469;50.906;6.952;2024-03-25T09:52:14;9.90;;;2.63;;
14754;SDS011;7469;50.906;6.952;2024-03-25T09:54:40;14.17;;;3.67;;
14754;SDS011;7469;50.906;6.952;2024-03-25T09:57:07;8.87;;;2.97;;
14754;SDS011;7469;50.906;6.952;2024-03-25T09:59:33;8.23;;;2.87;;
14754;SDS011;7469;50.906;6.952;2024-03-25T10:01:59;8.07;;;2.33;;
14754;SDS011;7469;50.906;6.952;2024-03-25T10:04:27;8.30;;;2.63;;
14754;SDS011;7469;50.906;6.952;2024-03-25T10:06:54;11.27;;;2.57;;
14754;SDS011;7469;50.906;6.952;2024-03-25T10:09:20;7.73;;;2.83;;
14754;SDS011;7469;50.906;6.952;2024-03-25T10:11:47;7.43;;;2.63;;
14754;SDS011;7469;50.906;6.952;2024-03-25T10:14:14;5.93;;;2.10;;
14754;SDS011;7469;50.906;6.952;2024-03-25T10:16:41;6.87;;;2.47;;
14754;SDS011;7469;50.906;6.952;2024-03-25T10:19:07;9.60;;;2.63;;
14754;SDS011;7469;50.906;6.952;2024-03-25T10:21:33;5.80;;;2.50;;
14754;SDS011;7469;50.906;6.952;2024-03-25T10:24:01;9.53;;;2.83;;
14754;SDS011;7469;50.906;6.952;2024-03-25T10:26:30;11.77;;;2.67;;
14754;SDS011;7469;50.906;6.952;2024-03-25T10:28:58;7.53;;;2.87;;
14754;SDS011;7469;50.906;6.952;2024-03-25T10:31:28;9.70;;;2.93;;
14754;SDS011;7469;50.906;6.952;2024-03-25T10:33:54;7.40;;;2.70;;
14754;SDS011;7469;50.906;6.952;2024-03-25T10:36:20;14.57;;;5.83;;
14754;SDS011;7469;50.906;6.952;2024-03-25T10:38:48;10.93;;;3.93;;
14754;SDS011;7469;50.906;6.952;2024-03-25T10:41:18;8.03;;;3.20;;
14754;SDS011;7469;50.906;6.952;2024-03-25T10:43:45;10.40;;;3.10;;
14754;SDS011;7469;50.906;6.952;2024-03-25T10:46:15;10.90;;;3.97;;
14754;SDS011;7469;50.906;6.952;2024-03-25T10:48:47;10.37;;;3.23;;
14754;SDS011;7469;50.906;6.952;2024-03-25T10:51:18;5.53;;;2.70;;
14754;SDS011;7469;50.906;6.952;2024-03-25T10:53:47;9.27;;;2.80;;
14754;SDS011;7469;50.906;6.952;2024-03-25T10:56:18;11.47;;;2.50;;
14754;SDS011;7469;50.906;6.952;2024-03-25T10:58:46;7.87;;;2.10;;
14754;SDS011;7469;50.906;6.952;2024-03-25T11:01:14;5.07;;;2.03;;
14754;SDS011;7469;50.906;6.952;2024-03-25T11:03:42;7.40;;;2.40;;
14754;SDS011;7469;50.906;6.952;2024-03-25T11:06:09;9.27;;;2.30;;
14754;SDS011;7469;50.906;6.952;2024-03-25T11:08:36;6.27;;;2.20;;
14754;SDS011;7469;50.906;6.952;2024-03-25T11:11:02;4.60;;;2.00;;
14754;SDS011;7469;50.906;6.952;2024-03-25T11:13:29;8.17;;;2.53;;
14754;SDS011;7469;50.906;6.952;2024-03-25T11:15:57;7.93;;;2.37;;
14754;SDS011;7469;50.906;6.952;2024-03-25T11:18:24;6.97;;;2.27;;
14754;SDS011;7469;50.906;6.952;2024-03-25T11:21:00;9.00;;;2.27;;
14754;SDS011;7469;50.906;6.952;2024-03-25T11:23:34;7.93;;;1.93;;
14754;SDS011;7469;50.906;6.952;2024-03-25T11:26:01;6.60;;;2.30;;
14754;SDS011;7469;50.906;6.952;2024-03-25T11:28:28;4.20;;;1.80;;
14754;SDS011;7469;50.906;6.952;2024-03-25T11:30:55;5.80;;;2.20;;
14754;SDS011;7469;50.906;6.952;2024-03-25T11:33:22;6.13;;;2.40;;
14754;SDS011;7469;50.906;6.952;2024-03-25T11:35:48;9.33;;;2.07;;
14754;SDS011;7469;50.906;6.952;2024-03-25T11:38:15;9.93;;;2.27;;
14754;SDS011;7469;50.906;6.952;2024-03-25T11:40:41;8.73;;;2.07;;
14754;SDS011;7469;50.906;6.952;2024-03-25T11:43:09;9.43;;;2.60;;
14754;SDS011;7469;50.906;6.952;2024-03-25T11:45:44;6.50;;;2.23;;
14754;SDS011;7469;50.906;6.952;2024-03-25T11:48:13;10.17;;;2.47;;
14754;SDS011;7469;50.906;6.952;2024-03-25T11:50:40;6.33;;;2.40;;
14754;SDS011;7469;50.906;6.952;2024-03-25T11:53:06;7.50;;;2.30;;
14754;SDS011;7469;50.906;6.952;2024-03-25T11:55:33;7.70;;;2.13;;
14754;SDS011;7469;50.906;6.952;2024-03-25T11:57:59;7.00;;;2.50;;
14754;SDS011;7469;50.906;6.952;2024-03-25T12:00:25;6.77;;;2.10;;
14754;SDS011;7469;50.906;6.952;2024-03-25T12:02:52;7.03;;;2.27;;
14754;SDS011;7469;50.906;6.952;2024-03-25T12:05:19;5.60;;;2.33;;
14754;SDS011;7469;50.906;6.952;2024-03-25T12:07:45;5.57;;;2.23;;
14754;SDS011;7469;50.906;6.952;2024-03-25T12:10:11;6.30;;;2.00;;
14754;SDS011;7469;50.906;6.952;2024-03-25T12:12:56;8.27;;;2.37;;
14754;SDS011;7469;50.906;6.952;2024-03-25T12:15:22;9.90;;;2.27;;
14754;SDS011;7469;50.906;6.952;2024-03-25T12:17:49;5.50;;;2.30;;
14754;SDS011;7469;50.906;6.952;2024-03-25T12:20:17;6.57;;;2.13;;
14754;SDS011;7469;50.906;6.952;2024-03-25T12:22:43;7.43;;;2.00;;
14754;SDS011;7469;50.906;6.952;2024-03-25T12:25:09;4.33;;;2.13;;
14754;SDS011;7469;50.906;6.952;2024-03-25T12:27:36;4.97;;;1.93;;
14754;SDS011;7469;50.906;6.952;2024-03-25T12:30:04;5.70;;;1.90;;
14754;SDS011;7469;50.906;6.952;2024-03-25T12:32:36;4.97;;;1.90;;
14754;SDS011;7469;50.906;6.952;2024-03-25T12:35:03;4.57;;;2.13;;
14754;SDS011;7469;50.906;6.952;2024-03-25T12:37:35;8.47;;;2.97;;
14754;SDS011;7469;50.906;6.952;2024-03-25T12:40:02;7.17;;;2.13;;
14754;SDS011;7469;50.906;6.952;2024-03-25T12:42:29;4.20;;;1.93;;
14754;SDS011;7469;50.906;6.952;2024-03-25T12:44:55;5.90;;;2.17;;
14754;SDS011;7469;50.906;6.952;2024-03-25T12:47:22;6.43;;;2.07;;
14754;SDS011;7469;50.906;6.952;2024-03-25T12:49:48;7.33;;;2.03;;
14754;SDS011;7469;50.906;6.952;2024-03-25T12:52:14;7.63;;;2.23;;
14754;SDS011;7469;50.906;6.952;2024-03-25T12:54:42;5.17;;;2.10;;
14754;SDS011;7469;50.906;6.952;2024-03-25T12:57:08;6.77;;;2.30;;
14754;SDS011;7469;50.906;6.952;2024-03-25T12:59:34;8.70;;;2.30;;
14754;SDS011;7469;50.906;6.952;2024-03-25T13:02:00;9.43;;;2.47;;
14754;SDS011;7469;50.906;6.952;2024-03-25T13:04:27;8.37;;;2.33;;
14754;SDS011;7469;50.906;6.952;2024-03-25T13:06:53;6.30;;;2.20;;
14754;SDS011;7469;50.906;6.952;2024-03-25T13:09:19;5.53;;;2.23;;
14754;SDS011;7469;50.906;6.952;2024-03-25T13:11:47;4.23;;;1.90;;
14754;SDS011;7469;50.906;6.952;2024-03-25T13:14:13;8.93;;;1.87;;
14754;SDS011;7469;50.906;6.952;2024-03-25T13:16:39;5.53;;;2.10;;
14754;SDS011;7469;50.906;6.952;2024-03-25T13:19:06;6.10;;;2.00;;
14754;SDS011;7469;50.906;6.952;2024-03-25T13:21:32;5.23;;;2.00;;
14754;SDS011;7469;50.906;6.952;2024-03-25T13:23:59;5.17;;;1.73;;
14754;SDS011;7469;50.906;6.952;2024-03-25T13:26:25;7.57;;;2.03;;
14754;SDS011;7469;50.906;6.952;2024-03-25T13:28:53;4.50;;;1.93;;
14754;SDS011;7469;50.906;6.952;2024-03-25T13:31:19;8.07;;;1.87;;
14754;SDS011;7469;50.906;6.952;2024-03-25T13:33:45;6.13;;;1.93;;
14754;SDS011;7469;50.906;6.952;2024-03-25T13:36:11;4.40;;;2.20;;
14754;SDS011;7469;50.906;6.952;2024-03-25T13:38:37;5.53;;;1.70;;
14754;SDS011;7469;50.906;6.952;2024-03-25T13:41:04;4.53;;;1.90;;
14754;SDS011;7469;50.906;6.952;2024-03-25T13:43:30;5.80;;;1.90;;
14754;SDS011;7469;50.906;6.952;2024-03-25T13:45:57;4.20;;;1.93;;
14754;SDS011;7469;50.906;6.952;2024-03-25T13:48:24;4.80;;;2.30;;
14754;SDS011;7469;50.906;6.952;2024-03-25T13:50:53;3.20;;;1.70;;
14754;SDS011;7469;50.906;6.952;2024-03-25T13:53:19;5.13;;;2.00;;
14754;SDS011;7469;50.906;6.952;2024-03-25T13:55:46;8.13;;;2.00;;
14754;SDS011;7469;50.906;6.952;2024-03-25T13:58:12;4.83;;;1.63;;
14754;SDS011;7469;50.906;6.952;2024-03-25T14:00:38;4.67;;;1.70;;
14754;SDS011;7469;50.906;6.952;2024-03-25T14:03:06;5.53;;;1.67;;
14754;SDS011;7469;50.906;6.952;2024-03-25T14:05:32;2.63;;;1.40;;
14754;SDS011;7469;50.906;6.952;2024-03-25T14:07:58;8.80;;;1.80;;
14754;SDS011;7469;50.906;6.952;2024-03-25T14:10:24;4.17;;;1.97;;
14754;SDS011;7469;50.906;6.952;2024-03-25T14:12:50;8.03;;;1.90;;
14754;SDS011;7469;50.906;6.952;2024-03-25T14:15:16;7.67;;;2.00;;
14754;SDS011;7469;50.906;6.952;2024-03-25T14:17:43;4.67;;;1.80;;
14754;SDS011;7469;50.906;6.952;2024-03-25T14:20:11;3.63;;;1.60;;
14754;SDS011;7469;50.906;6.952;2024-03-25T14:22:37;4.37;;;1.87;;
14754;SDS011;7469;50.906;6.952;2024-03-25T14:25:03;4.73;;;1.70;;
14754;SDS011;7469;50.906;6.952;2024-03-25T14:27:30;4.10;;;1.73;;
14754;SDS011;7469;50.906;6.952;2024-03-25T14:29:56;5.60;;;1.93;;
14754;SDS011;7469;50.906;6.952;2024-03-25T14:32:22;2.93;;;1.47;;
14754;SDS011;7469;50.906;6.952;2024-03-25T14:34:49;4.17;;;1.60;;
14754;SDS011;7469;50.906;6.952;2024-03-25T14:37:16;7.27;;;1.80;;
14754;SDS011;7469;50.906;6.952;2024-03-25T14:39:43;4.67;;;1.60;;
14754;SDS011;7469;50.906;6.952;2024-03-25T14:42:09;3.63;;;1.63;;
14754;SDS011;7469;50.906;6.952;2024-03-25T14:44:36;5.37;;;1.97;;
14754;SDS011;7469;50.906;6.952;2024-03-25T14:47:02;5.67;;;1.70;;
14754;SDS011;7469;50.906;6.952;2024-03-25T14:49:29;4.97;;;1.83;;
14754;SDS011;7469;50.906;6.952;2024-03-25T14:51:55;4.50;;;1.77;;